X  Close Metar Aviation Weather Data     EIDW Dublin Airport
Temperature
17°C Temperature
9°C Dewpoint
59% Humidity



Wind
27 KM/H
17 MPH
8 M/S
15 KTS



270°
W
Current Conditions

Partly Cloudy Partly Cloudy
Pressure 1019.92 (hPa) - 30.12 (inHg)
Visibility 6.2 (mile) - 10 (km)
Airport
Airport-code EIDW

Location: Dublin Airport
Distance: 17 (km)

Metar:
EIDW 031500Z 27015KT 9999 FEW016 BKN040 17/09 Q1020 NOSIG

Time: 03-07-2022 16:00 IST